createdAt,value
2023-04-10T00:00:01.754Z,-20
2023-04-10T00:01:08.027Z,-21
2023-04-10T00:02:14.285Z,-22
2023-04-10T00:03:20.568Z,-21
2023-04-10T00:04:26.842Z,-21
2023-04-10T00:05:32.143Z,-21
2023-04-10T00:06:37.443Z,-21
2023-04-10T00:07:42.727Z,-22
2023-04-10T00:08:48.011Z,-21
2023-04-10T00:09:54.290Z,-20
2023-04-10T00:11:00.569Z,-18
2023-04-10T00:12:06.832Z,-19
2023-04-10T00:13:13.107Z,-21
2023-04-10T00:14:19.374Z,-21
2023-04-10T00:15:25.649Z,-21
2023-04-10T00:16:31.929Z,-20
2023-04-10T00:17:38.190Z,-21
2023-04-10T00:18:44.468Z,-21
2023-04-10T00:19:50.731Z,-21
2023-04-10T00:20:57.016Z,-21
2023-04-10T00:22:03.286Z,-21
2023-04-10T00:23:08.570Z,-20
2023-04-10T00:24:14.844Z,-21
2023-04-10T00:25:21.114Z,-20
2023-04-10T00:26:27.465Z,-25
2023-04-10T00:27:33.669Z,-21
2023-04-10T00:28:39.931Z,-21
2023-04-10T00:29:46.211Z,-21
2023-04-10T00:30:51.505Z,-20
2023-04-10T00:31:56.791Z,-21
2023-04-10T00:33:03.067Z,-21
2023-04-10T00:34:09.337Z,-22
2023-04-10T00:35:14.647Z,-21
2023-04-10T00:36:19.958Z,-21
2023-04-10T00:37:26.205Z,-21
2023-04-10T00:38:32.480Z,-21
2023-04-10T00:39:38.743Z,-21
2023-04-10T00:40:45.015Z,-21
2023-04-10T00:41:51.292Z,-21
2023-04-10T00:42:57.625Z,-21
2023-04-10T00:44:03.870Z,-21
2023-04-10T00:45:10.097Z,-21
2023-04-10T00:46:16.380Z,-21
2023-04-10T00:47:22.645Z,-22
2023-04-10T00:48:28.917Z,-21
2023-04-10T00:49:35.192Z,-21
2023-04-10T00:50:40.485Z,-21
2023-04-10T00:51:46.804Z,-20
2023-04-10T00:52:53.026Z,-22
2023-04-10T00:53:59.299Z,-22
2023-04-10T00:55:05.631Z,-23
2023-04-10T00:56:11.944Z,-22
2023-04-10T00:57:18.122Z,-23
2023-04-10T00:58:24.390Z,-21
2023-04-10T00:59:30.666Z,-22
2023-04-10T01:00:36.935Z,-23
2023-04-10T01:01:43.202Z,-22
2023-04-10T01:02:49.480Z,-22
2023-04-10T01:03:55.746Z,-21
2023-04-10T01:05:01.051Z,-22
2023-04-10T01:06:07.324Z,-22
2023-04-10T01:07:13.577Z,-22
2023-04-10T01:08:19.853Z,-22
2023-04-10T01:09:26.166Z,-21
2023-04-10T01:10:32.409Z,-22
2023-04-10T01:11:38.674Z,-22
2023-04-10T01:12:44.946Z,-23
2023-04-10T01:13:51.216Z,-21
2023-04-10T01:14:57.498Z,-23
2023-04-10T01:16:03.762Z,-22
2023-04-10T01:17:10.041Z,-22
2023-04-10T01:18:16.325Z,-23
2023-04-10T01:19:21.598Z,-23
2023-04-10T01:20:27.874Z,-22
2023-04-10T01:21:34.168Z,-22
2023-04-10T01:22:40.424Z,-22
2023-04-10T01:23:45.740Z,-22
2023-04-10T01:24:51.002Z,-21
2023-04-10T01:25:56.305Z,-23
2023-04-10T01:27:01.605Z,-21
2023-04-10T01:28:07.868Z,-22
2023-04-10T01:29:14.208Z,-23
2023-04-10T01:30:20.430Z,-21
2023-04-10T01:31:26.675Z,-22
2023-04-10T01:32:32.959Z,-23
2023-04-10T01:33:39.232Z,-23
2023-04-10T01:34:45.502Z,-22
2023-04-10T01:35:51.761Z,-21
2023-04-10T01:36:58.066Z,-23
2023-04-10T01:38:04.317Z,-21
2023-04-10T01:39:10.584Z,-22
2023-04-10T01:40:16.861Z,-23
2023-04-10T01:41:22.146Z,-22
2023-04-10T01:42:28.415Z,-21
2023-04-10T01:43:34.687Z,-21
2023-04-10T01:44:40.975Z,-23
2023-04-10T01:45:47.342Z,-23
2023-04-10T01:46:53.513Z,-23
2023-04-10T01:47:59.783Z,-22
2023-04-10T01:49:06.072Z,-21
2023-04-10T01:50:12.325Z,-24
2023-04-10T01:51:18.600Z,-23
2023-04-10T01:52:24.876Z,-22
2023-04-10T01:53:31.143Z,-23
2023-04-10T01:54:37.424Z,-22
2023-04-10T01:55:42.696Z,-24
2023-04-10T01:56:48.978Z,-23
2023-04-10T01:57:55.263Z,-23
2023-04-10T01:59:01.520Z,-23
2023-04-10T02:00:07.794Z,-22
2023-04-10T02:01:14.088Z,-23
2023-04-10T02:02:20.336Z,-23
2023-04-10T02:03:26.614Z,-22
2023-04-10T02:04:32.900Z,-22
2023-04-10T02:05:39.158Z,-24
2023-04-10T02:06:45.455Z,-24
2023-04-10T02:07:51.706Z,-24
2023-04-10T02:08:57.973Z,-23
2023-04-10T02:10:03.265Z,-21
2023-04-10T02:11:09.541Z,-23
2023-04-10T02:12:15.801Z,-22
2023-04-10T02:13:22.067Z,-23
2023-04-10T02:14:28.351Z,-25
2023-04-10T02:15:34.635Z,-24
2023-04-10T02:16:40.893Z,-25
2023-04-10T02:17:47.161Z,-23
2023-04-10T02:18:53.438Z,-24
2023-04-10T02:19:59.721Z,-24
2023-04-10T02:21:05.993Z,-24
2023-04-10T02:22:12.262Z,-23
2023-04-10T02:23:18.532Z,-24
2023-04-10T02:24:23.839Z,-23
2023-04-10T02:25:29.116Z,-24
2023-04-10T02:26:34.412Z,-24
2023-04-10T02:27:39.705Z,-23
2023-04-10T02:28:45.975Z,-24
2023-04-10T02:29:52.254Z,-23
2023-04-10T02:30:58.514Z,-24
2023-04-10T02:32:04.817Z,-23
2023-04-10T02:33:11.067Z,-25
2023-04-10T02:34:17.340Z,-24
2023-04-10T02:35:23.615Z,-25
2023-04-10T02:36:29.895Z,-24
2023-04-10T02:37:36.167Z,-24
2023-04-10T02:38:42.458Z,-25
2023-04-10T02:39:48.704Z,-25
2023-04-10T02:40:54.972Z,-23
2023-04-10T02:42:00.263Z,-24
2023-04-10T02:43:06.534Z,-23
2023-04-10T02:44:12.819Z,-24
2023-04-10T02:45:19.078Z,-23
2023-04-10T02:46:25.412Z,-24
2023-04-10T02:47:31.640Z,-25
2023-04-10T02:48:37.899Z,-24
2023-04-10T02:49:43.218Z,-23
2023-04-10T02:50:48.485Z,-25
2023-04-10T02:51:54.850Z,-24
2023-04-10T02:53:00.076Z,-26
2023-04-10T02:54:06.332Z,-25
2023-04-10T02:55:11.629Z,-24
2023-04-10T02:56:17.888Z,-25
2023-04-10T02:57:24.168Z,-24
2023-04-10T02:58:30.435Z,-24
2023-04-10T02:59:36.716Z,-24
2023-04-10T03:00:42.981Z,-25
2023-04-10T03:01:49.245Z,-23
2023-04-10T03:02:55.545Z,-25
2023-04-10T03:04:01.819Z,-24
2023-04-10T03:05:08.075Z,-23
2023-04-10T03:06:14.333Z,-25
2023-04-10T03:07:20.608Z,-25
2023-04-10T03:08:26.890Z,-25
2023-04-10T03:09:32.171Z,-24
2023-04-10T03:10:38.443Z,-24
2023-04-10T03:11:44.720Z,-25
2023-04-10T03:12:50.995Z,-25
2023-04-10T03:13:57.286Z,-25
2023-04-10T03:15:03.556Z,-25
2023-04-10T03:16:09.805Z,-25
2023-04-10T03:17:16.076Z,-25
2023-04-10T03:18:22.357Z,-26
2023-04-10T03:19:28.620Z,-25
2023-04-10T03:20:34.894Z,-25
2023-04-10T03:21:41.168Z,-25
2023-04-10T03:22:47.457Z,-25
2023-04-10T03:23:52.742Z,-25
2023-04-10T03:24:59.001Z,-25
2023-04-10T03:26:05.277Z,-25
2023-04-10T03:27:11.541Z,-25
2023-04-10T03:29:24.109Z,-25
2023-04-10T03:30:30.366Z,-23
2023-04-10T03:31:36.627Z,-25
2023-04-10T03:32:42.904Z,-25
2023-04-10T03:33:49.192Z,-26
2023-04-10T03:34:55.460Z,-25
2023-04-10T03:36:01.743Z,-25
2023-04-10T03:37:08.000Z,-25
2023-04-10T03:38:13.288Z,-26
2023-04-10T03:39:19.563Z,-25
2023-04-10T03:40:25.845Z,-27
2023-04-10T03:41:31.127Z,-26
2023-04-10T03:42:37.397Z,-24
2023-04-10T03:43:43.661Z,-25
2023-04-10T03:45:56.208Z,-25
2023-04-10T03:47:02.486Z,-27
2023-04-10T03:48:08.758Z,-27
2023-04-10T03:49:15.038Z,-24
2023-04-10T03:50:21.296Z,-25
2023-04-10T03:51:27.578Z,-24
2023-04-10T03:52:33.848Z,-25
2023-04-10T03:53:40.108Z,-26
2023-04-10T03:54:46.388Z,-25
2023-04-10T03:55:51.690Z,-25
2023-04-10T03:56:57.965Z,-25
2023-04-10T03:58:04.235Z,-26
2023-04-10T03:59:10.504Z,-25
2023-04-10T04:00:16.779Z,-28
2023-04-10T04:01:23.040Z,-25
2023-04-10T04:02:29.334Z,-25
2023-04-10T04:03:34.625Z,-26
2023-04-10T04:04:39.891Z,-23
2023-04-10T04:05:46.171Z,-28
2023-04-10T04:06:52.479Z,-26
2023-04-10T04:07:57.746Z,-28
2023-04-10T04:09:03.030Z,-25
2023-04-10T04:10:09.308Z,-25
2023-04-10T04:11:15.601Z,-26
2023-04-10T04:12:21.852Z,-25
2023-04-10T04:13:28.124Z,-25
2023-04-10T04:14:34.425Z,-26
2023-04-10T04:15:40.667Z,-25
2023-04-10T04:16:46.947Z,-25
2023-04-10T04:17:53.229Z,-25
2023-04-10T04:18:59.511Z,-25
2023-04-10T04:20:05.765Z,-25
2023-04-10T04:21:12.030Z,-26
2023-04-10T04:22:18.298Z,-26
2023-04-10T04:23:23.586Z,-27
2023-04-10T04:24:29.857Z,-26
2023-04-10T04:25:36.136Z,-26
2023-04-10T04:26:42.420Z,-26
2023-04-10T04:27:48.684Z,-27
2023-04-10T04:28:54.954Z,-26
2023-04-10T04:30:01.362Z,-26
2023-04-10T04:31:07.494Z,-27
2023-04-10T04:32:13.773Z,-25
2023-04-10T04:33:20.077Z,-26
2023-04-10T04:35:32.593Z,-25
2023-04-10T04:36:38.891Z,-26
2023-04-10T04:37:44.157Z,-25
2023-04-10T04:38:50.426Z,-27
2023-04-10T04:39:56.696Z,-27
2023-04-10T04:41:02.958Z,-26
2023-04-10T04:42:09.242Z,-26
2023-04-10T04:43:15.608Z,-27
2023-04-10T04:44:21.817Z,-27
2023-04-10T04:45:28.069Z,-26
2023-04-10T04:46:34.337Z,-25
2023-04-10T04:47:40.605Z,-25
2023-04-10T04:48:46.896Z,-25
2023-04-10T04:49:53.146Z,-25
2023-04-10T04:52:05.694Z,-26
2023-04-10T04:53:10.984Z,-25
2023-04-10T04:54:17.267Z,-26
2023-04-10T04:55:23.528Z,-27
2023-04-10T04:56:29.801Z,-26
2023-04-10T04:57:36.067Z,-28
2023-04-10T04:58:42.346Z,-25
2023-04-10T04:59:48.619Z,-26
2023-04-10T05:00:54.891Z,-28
2023-04-10T05:02:01.175Z,-27
2023-04-10T05:03:07.440Z,-28
2023-04-10T05:04:13.718Z,-25
2023-04-10T05:05:19.980Z,-24
2023-04-10T05:06:26.263Z,-28
2023-04-10T05:07:31.558Z,-26
2023-04-10T05:08:37.809Z,-26
2023-04-10T05:09:44.084Z,-25
2023-04-10T05:10:50.357Z,-26
2023-04-10T05:11:56.634Z,-26
2023-04-10T05:13:02.899Z,-25
2023-04-10T05:14:09.205Z,-25
2023-04-10T05:15:15.443Z,-25
2023-04-10T05:16:21.726Z,-27
2023-04-10T05:17:27.988Z,-25
2023-04-10T05:18:34.264Z,-26
2023-04-10T05:19:40.529Z,-25
2023-04-10T05:20:46.819Z,-25
2023-04-10T05:21:52.101Z,-24
2023-04-10T05:22:58.369Z,-26
2023-04-10T05:24:04.648Z,-25
2023-04-10T05:25:10.916Z,-25
2023-04-10T05:26:17.181Z,-25
2023-04-10T05:27:23.478Z,-24
2023-04-10T05:28:29.739Z,-25
2023-04-10T05:29:36.014Z,-25
2023-04-10T05:30:42.289Z,-25
2023-04-10T05:31:48.547Z,-25
2023-04-10T05:32:54.821Z,-25
2023-04-10T05:34:01.094Z,-25
2023-04-10T05:35:07.371Z,-25
2023-04-10T05:36:12.658Z,-24
2023-04-10T05:37:18.936Z,-25
2023-04-10T05:38:25.215Z,-25
2023-04-10T05:39:31.484Z,-24
2023-04-10T05:40:37.743Z,-25
2023-04-10T05:41:44.017Z,-24
2023-04-10T05:42:50.322Z,-25
2023-04-10T05:43:56.571Z,-24
2023-04-10T05:45:02.843Z,-24
2023-04-10T05:46:09.112Z,-24
2023-04-10T05:47:15.420Z,-24
2023-04-10T05:48:20.688Z,-23
2023-04-10T05:49:25.982Z,-24
2023-04-10T05:50:32.246Z,-23
2023-04-10T05:51:38.522Z,-23
2023-04-10T05:52:44.789Z,-25
2023-04-10T05:53:50.090Z,-25
2023-04-10T05:54:55.373Z,-25
2023-04-10T05:56:01.649Z,-25
2023-04-10T05:58:14.184Z,-23
2023-04-10T05:59:20.467Z,-21
2023-04-10T06:00:26.800Z,-24
2023-04-10T06:01:33.026Z,-24
2023-04-10T06:02:39.282Z,-23
2023-04-10T06:03:45.591Z,-23
2023-04-10T06:04:51.838Z,-23
2023-04-10T06:05:58.182Z,-23
2023-04-10T06:07:04.394Z,-21
2023-04-10T06:08:10.638Z,-23
2023-04-10T06:09:15.952Z,-22
2023-04-10T06:10:22.230Z,-21
2023-04-10T06:11:28.488Z,-24
2023-04-10T06:12:34.750Z,-23
2023-04-10T06:13:41.036Z,-23
2023-04-10T06:14:47.286Z,-22
2023-04-10T06:15:53.569Z,-21
2023-04-10T06:16:59.868Z,-22
2023-04-10T06:18:05.128Z,-23
2023-04-10T06:19:10.417Z,-21
2023-04-10T06:20:16.687Z,-21
2023-04-10T06:21:22.972Z,-22
2023-04-10T06:22:29.315Z,-22
2023-04-10T06:23:35.502Z,-21
2023-04-10T06:24:41.836Z,-21
2023-04-10T06:25:48.061Z,-21
2023-04-10T06:26:54.322Z,-21
2023-04-10T06:28:00.598Z,-23
2023-04-10T06:29:06.957Z,-21
2023-04-10T06:30:13.171Z,-21
2023-04-10T06:31:19.417Z,-21
2023-04-10T06:32:25.690Z,-21
2023-04-10T06:33:30.977Z,-21
2023-04-10T06:34:37.270Z,-21
2023-04-10T06:35:43.531Z,-21
2023-04-10T06:36:49.830Z,-22
2023-04-10T06:37:56.089Z,-21
2023-04-10T06:39:02.370Z,-20
2023-04-10T06:40:08.613Z,-20
2023-04-10T06:41:13.913Z,-20
2023-04-10T06:42:19.277Z,-21
2023-04-10T06:43:24.518Z,-21
2023-04-10T06:44:29.812Z,-20
2023-04-10T06:45:36.079Z,-20
2023-04-10T06:47:48.618Z,-19
2023-04-10T06:48:54.877Z,-18
2023-04-10T06:50:01.149Z,-18
2023-04-10T06:51:07.454Z,-17
2023-04-10T06:52:13.693Z,-15
2023-04-10T06:53:19.980Z,-15
2023-04-10T06:54:26.246Z,-15
2023-04-10T06:55:32.508Z,-15
2023-04-10T06:56:38.771Z,-15
2023-04-10T06:57:45.063Z,-16
2023-04-10T06:58:50.419Z,-15
2023-04-10T06:59:56.631Z,-15
2023-04-10T07:01:02.904Z,-16
2023-04-10T07:02:09.164Z,-16
2023-04-10T07:04:21.706Z,-17
2023-04-10T07:05:27.000Z,-16
2023-04-10T07:06:32.301Z,-17
2023-04-10T07:07:38.592Z,-17
2023-04-10T07:08:44.832Z,-17
2023-04-10T07:09:51.122Z,-16
2023-04-10T07:10:57.395Z,-17
2023-04-10T07:12:03.659Z,-16
2023-04-10T07:13:09.935Z,-16
2023-04-10T07:14:16.194Z,-17
2023-04-10T07:15:22.468Z,-18
2023-04-10T07:16:28.752Z,-17
2023-04-10T07:17:34.032Z,-15
2023-04-10T07:18:39.318Z,-15
2023-04-10T07:19:45.596Z,-14
2023-04-10T07:20:51.877Z,-14
2023-04-10T07:21:58.146Z,-15
2023-04-10T07:23:03.435Z,-15
2023-04-10T07:24:09.740Z,-14
2023-04-10T07:25:15.990Z,-15
2023-04-10T07:26:22.255Z,-14
2023-04-10T07:27:28.564Z,-15
2023-04-10T07:28:34.798Z,-15
2023-04-10T07:29:41.068Z,-15
2023-04-10T07:30:47.366Z,-14
2023-04-10T07:31:53.660Z,-15
2023-04-10T07:32:59.901Z,-15
2023-04-10T07:34:06.193Z,-15
2023-04-10T07:35:12.436Z,-15
2023-04-10T07:36:18.731Z,-15
2023-04-10T07:37:23.991Z,-15
2023-04-10T07:38:30.267Z,-15
2023-04-10T07:39:36.561Z,-14
2023-04-10T07:40:41.847Z,-15
2023-04-10T07:41:47.162Z,-15
2023-04-10T07:42:53.396Z,-15
2023-04-10T07:43:59.667Z,-14
2023-04-10T07:45:04.967Z,-15
2023-04-10T07:46:10.258Z,-15
2023-04-10T07:47:16.537Z,-15
2023-04-10T07:48:22.814Z,-15
2023-04-10T07:49:29.086Z,-15
2023-04-10T07:50:35.341Z,-15
2023-04-10T07:51:41.622Z,-15
2023-04-10T07:52:47.889Z,-15
2023-04-10T07:53:54.168Z,-15
2023-04-10T07:55:00.432Z,-15
2023-04-10T07:56:06.764Z,-14
2023-04-10T07:57:12.985Z,-15
2023-04-10T07:58:19.255Z,-15
2023-04-10T07:59:25.538Z,-14
2023-04-10T08:00:30.812Z,-14
2023-04-10T08:01:37.086Z,-14
2023-04-10T08:02:43.356Z,-14
2023-04-10T08:03:49.626Z,-13
2023-04-10T08:04:55.899Z,-14
2023-04-10T08:06:02.183Z,-14
2023-04-10T08:07:08.447Z,-13
2023-04-10T08:08:14.748Z,-13
2023-04-10T08:09:21.020Z,-13
2023-04-10T08:10:27.264Z,-14
2023-04-10T08:11:33.548Z,-12
2023-04-10T08:12:39.806Z,-11
2023-04-10T08:13:46.069Z,-12
2023-04-10T08:14:51.359Z,-11
2023-04-10T08:15:57.635Z,-12
2023-04-10T08:17:03.903Z,-12
2023-04-10T08:18:10.180Z,-12
2023-04-10T08:19:16.457Z,-10
2023-04-10T08:20:22.728Z,-11
2023-04-10T08:21:29.047Z,-11
2023-04-10T08:22:35.306Z,-10
2023-04-10T08:23:41.650Z,-11
2023-04-10T08:24:47.904Z,-11
2023-04-10T08:25:54.345Z,-10
2023-04-10T08:27:00.485Z,-10
2023-04-10T08:28:06.734Z,-10
2023-04-10T08:29:11.983Z,-9
2023-04-10T08:30:18.331Z,-10
2023-04-10T08:31:24.622Z,-9
2023-04-10T08:32:30.792Z,-9
2023-04-10T08:33:37.019Z,-9
2023-04-10T08:34:43.420Z,-9
2023-04-10T08:35:49.560Z,-9
2023-04-10T08:36:55.974Z,-9
2023-04-10T08:38:02.093Z,-9
2023-04-10T08:39:08.361Z,-9
2023-04-10T08:40:14.780Z,-9
2023-04-10T08:41:21.095Z,-9
2023-04-10T08:42:27.353Z,-10
2023-04-10T08:43:32.659Z,-9
2023-04-10T08:44:38.734Z,-9
2023-04-10T08:45:45.224Z,-9
2023-04-10T08:46:51.460Z,-9
2023-04-10T08:47:57.705Z,-10
2023-04-10T08:49:04.015Z,-9
2023-04-10T08:50:10.229Z,-9
2023-04-10T08:51:16.471Z,-9
2023-04-10T08:52:22.765Z,-9
2023-04-10T08:53:29.066Z,-8
2023-04-10T08:54:35.348Z,-8
2023-04-10T08:55:41.659Z,-9
2023-04-10T08:56:47.874Z,-9
2023-04-10T08:57:53.009Z,-9
2023-04-10T08:58:59.466Z,-9
2023-04-10T09:00:05.632Z,-9
2023-04-10T09:01:11.955Z,-9
2023-04-10T09:02:18.111Z,-9
2023-04-10T09:03:24.408Z,-9
2023-04-10T09:04:30.685Z,-8
2023-04-10T09:05:37.068Z,-9
2023-04-10T09:06:43.364Z,-10
2023-04-10T09:07:49.575Z,-9
2023-04-10T09:08:55.888Z,-8
2023-04-10T09:10:02.116Z,-9
2023-04-10T09:11:08.421Z,-9
2023-04-10T09:12:13.566Z,-7
2023-04-10T09:13:19.909Z,-7
2023-04-10T09:14:26.200Z,-8
2023-04-10T09:15:32.472Z,-8
2023-04-10T09:16:38.753Z,-8
2023-04-10T09:17:44.938Z,-9
2023-04-10T09:18:51.394Z,-8
2023-04-10T09:19:57.660Z,-8
2023-04-10T09:21:03.906Z,-8
2023-04-10T09:22:10.147Z,-8
2023-04-10T09:23:16.412Z,-8
2023-04-10T09:24:22.685Z,-7
2023-04-10T09:25:28.981Z,-8
2023-04-10T09:26:34.298Z,-6
2023-04-10T09:27:40.542Z,-7
2023-04-10T09:28:46.824Z,-6
2023-04-10T09:29:53.034Z,-7
2023-04-10T09:30:59.346Z,-6
2023-04-10T09:32:05.571Z,-6
2023-04-10T09:33:11.895Z,-6
2023-04-10T09:34:18.180Z,-4
2023-04-10T09:35:24.446Z,-5
2023-04-10T09:36:30.737Z,-4
2023-04-10T09:37:36.934Z,-4
2023-04-10T09:38:43.257Z,-4
2023-04-10T09:39:49.382Z,-3
2023-04-10T09:40:54.813Z,-3
2023-04-10T09:42:01.109Z,-2
2023-04-10T09:43:07.258Z,-2
2023-04-10T09:44:13.669Z,0
2023-04-10T09:45:19.941Z,-1
2023-04-10T09:46:26.225Z,-1
2023-04-10T09:47:32.442Z,0
2023-04-10T09:48:38.777Z,0
2023-04-10T09:49:45.013Z,1
2023-04-10T09:50:51.229Z,0
2023-04-10T09:51:57.436Z,0
2023-04-10T09:53:03.727Z,1
2023-04-10T09:54:10.093Z,1
2023-04-10T09:55:16.358Z,0
2023-04-10T09:56:21.656Z,1
2023-04-10T09:57:27.944Z,3
2023-04-10T09:58:34.073Z,2
2023-04-10T09:59:40.451Z,3
2023-04-10T10:00:46.795Z,3
2023-04-10T10:01:52.976Z,3
2023-04-10T10:02:59.280Z,3
2023-04-10T10:04:05.590Z,1
2023-04-10T10:05:11.847Z,4
2023-04-10T10:06:18.048Z,4
2023-04-10T10:07:24.371Z,3
2023-04-10T10:08:30.517Z,4
2023-04-10T10:09:36.738Z,3
2023-04-10T10:10:43.215Z,4
2023-04-10T10:11:49.408Z,5
2023-04-10T10:12:54.704Z,6
2023-04-10T10:14:01.139Z,5
2023-04-10T10:15:06.266Z,5
2023-04-10T10:16:11.619Z,5
2023-04-10T10:17:18.029Z,5
2023-04-10T10:18:24.282Z,4
2023-04-10T10:19:30.534Z,3
2023-04-10T10:20:36.813Z,6
2023-04-10T10:21:43.101Z,5
2023-04-10T10:22:49.345Z,5
2023-04-10T10:23:55.561Z,4
2023-04-10T10:25:01.910Z,5
2023-04-10T10:26:08.188Z,4
2023-04-10T10:27:14.449Z,5
2023-04-10T10:28:20.720Z,5
2023-04-10T10:29:27.090Z,4
2023-04-10T10:30:32.115Z,8
2023-04-10T10:31:38.459Z,6
2023-04-10T10:32:44.892Z,6
2023-04-10T10:33:51.051Z,7
2023-04-10T10:34:57.347Z,6
2023-04-10T10:36:03.685Z,7
2023-04-10T10:37:09.811Z,6
2023-04-10T10:39:22.430Z,7
2023-04-10T10:40:28.713Z,9
2023-04-10T10:41:34.988Z,7
2023-04-10T10:42:41.116Z,6
2023-04-10T10:43:46.596Z,6
2023-04-10T10:44:51.802Z,5
2023-04-10T10:45:57.155Z,7
2023-04-10T10:47:02.440Z,5
2023-04-10T10:48:08.544Z,9
2023-04-10T10:49:14.888Z,7
2023-04-10T10:50:21.228Z,8
2023-04-10T10:51:27.502Z,8
2023-04-10T10:53:40.060Z,7
2023-04-10T10:54:46.356Z,7
2023-04-10T10:55:52.595Z,6
2023-04-10T10:56:58.881Z,6
2023-04-10T10:58:05.154Z,6
2023-04-10T10:59:11.428Z,8
2023-04-10T11:00:17.618Z,6
2023-04-10T11:01:22.980Z,6
2023-04-10T11:02:29.339Z,6
2023-04-10T11:03:35.371Z,7
2023-04-10T11:04:40.728Z,7
2023-04-10T11:05:47.128Z,7
2023-04-10T11:06:53.359Z,6
2023-04-10T11:07:59.485Z,8
2023-04-10T11:09:05.946Z,8
2023-04-10T11:10:11.131Z,7
2023-04-10T11:11:16.608Z,9
2023-04-10T11:12:22.816Z,8
2023-04-10T11:13:29.079Z,7
2023-04-10T11:14:34.317Z,8
2023-04-10T11:15:39.555Z,7
2023-04-10T11:16:45.745Z,8
2023-04-10T11:17:52.225Z,9
2023-04-10T11:18:58.466Z,9
2023-04-10T11:20:04.749Z,9
2023-04-10T11:21:10.989Z,9
2023-04-10T11:22:17.209Z,9
2023-04-10T11:23:23.367Z,9
2023-04-10T11:24:29.816Z,9
2023-04-10T11:25:36.081Z,8
2023-04-10T11:26:42.419Z,7
2023-04-10T11:28:54.906Z,7
2023-04-10T11:30:00.154Z,8
2023-04-10T11:31:06.368Z,8
2023-04-10T11:32:12.711Z,9
2023-04-10T11:33:18.991Z,10
2023-04-10T11:34:25.186Z,11
2023-04-10T11:35:31.562Z,9
2023-04-10T11:36:37.805Z,9
2023-04-10T11:37:44.089Z,9
2023-04-10T11:38:49.366Z,9
2023-04-10T11:39:54.645Z,9
2023-04-10T11:41:00.936Z,9
2023-04-10T11:42:06.294Z,9
2023-04-10T11:43:11.355Z,11
2023-04-10T11:44:17.785Z,9
2023-04-10T11:45:23.896Z,9
2023-04-10T11:46:30.186Z,10
2023-04-10T11:47:36.613Z,9
2023-04-10T11:48:42.932Z,9
2023-04-10T11:49:49.166Z,10
2023-04-10T11:50:55.255Z,9
2023-04-10T11:52:01.688Z,11
2023-04-10T11:53:07.978Z,12
2023-04-10T11:54:14.226Z,10
2023-04-10T11:55:20.503Z,10
2023-04-10T11:56:26.830Z,9
2023-04-10T11:57:32.013Z,9
2023-04-10T11:58:38.300Z,10
2023-04-10T11:59:44.548Z,9
2023-04-10T12:00:50.878Z,9
2023-04-10T12:01:57.032Z,9
2023-04-10T12:03:03.320Z,10
2023-04-10T12:04:09.703Z,10
2023-04-10T12:05:14.996Z,10
2023-04-10T12:06:20.296Z,10
2023-04-10T12:07:26.504Z,10
2023-04-10T12:08:32.816Z,11
2023-04-10T12:09:38.135Z,10
2023-04-10T12:10:43.395Z,11
2023-04-10T12:11:49.696Z,9
2023-04-10T12:12:55.970Z,11
2023-04-10T12:14:02.194Z,11
2023-04-10T12:15:08.530Z,10
2023-04-10T12:16:14.769Z,10
2023-04-10T12:17:21.112Z,11
2023-04-10T12:18:27.330Z,10
2023-04-10T12:19:33.541Z,10
2023-04-10T12:20:39.858Z,11
2023-04-10T12:21:46.214Z,10
2023-04-10T12:22:52.345Z,12
2023-04-10T12:23:58.685Z,11
2023-04-10T12:25:03.981Z,15
2023-04-10T12:26:10.207Z,12
2023-04-10T12:27:16.510Z,12
2023-04-10T12:28:22.676Z,12
2023-04-10T12:29:29.078Z,12
2023-04-10T12:30:35.346Z,12
2023-04-10T12:31:41.607Z,12
2023-04-10T12:32:46.852Z,12
2023-04-10T12:33:52.192Z,13
2023-04-10T12:34:58.503Z,12
2023-04-10T12:36:04.747Z,12
2023-04-10T12:37:11.016Z,13
2023-04-10T12:38:17.268Z,12
2023-04-10T12:39:23.551Z,15
2023-04-10T12:40:29.771Z,14
2023-04-10T12:41:36.097Z,14
2023-04-10T12:42:42.356Z,14
2023-04-10T12:43:48.571Z,14
2023-04-10T12:44:54.856Z,15
2023-04-10T12:46:01.189Z,15
2023-04-10T12:47:07.449Z,14
2023-04-10T12:48:12.757Z,14
2023-04-10T12:49:19.053Z,15
2023-04-10T12:50:25.110Z,15
2023-04-10T12:51:31.560Z,13
2023-04-10T12:52:37.865Z,15
2023-04-10T12:53:44.155Z,16
2023-04-10T12:54:50.373Z,17
2023-04-10T12:55:55.750Z,16
2023-04-10T12:57:01.011Z,18
2023-04-10T12:58:06.104Z,17
2023-04-10T12:59:11.502Z,16
2023-04-10T13:00:17.929Z,19
2023-04-10T13:01:24.082Z,18
2023-04-10T13:02:29.402Z,18
2023-04-10T13:03:34.509Z,18
2023-04-10T13:04:40.790Z,18
2023-04-10T13:05:47.272Z,18
2023-04-10T13:06:53.342Z,18
2023-04-10T13:07:59.725Z,18
2023-04-10T13:09:05.864Z,18
2023-04-10T13:10:12.257Z,18
2023-04-10T13:11:18.410Z,17
2023-04-10T13:12:24.689Z,18
2023-04-10T13:13:31.201Z,18
2023-04-10T13:14:37.398Z,17
2023-04-10T13:15:43.657Z,17
2023-04-10T13:16:49.869Z,18
2023-04-10T13:17:55.068Z,18
2023-04-10T13:19:01.513Z,18
2023-04-10T13:20:07.789Z,19
2023-04-10T13:21:13.997Z,18
2023-04-10T13:22:20.338Z,19
2023-04-10T13:23:26.645Z,19
2023-04-10T13:24:32.696Z,19
2023-04-10T13:25:38.148Z,19
2023-04-10T13:26:43.452Z,19
2023-04-10T13:27:48.782Z,20
2023-04-10T13:28:54.004Z,19
2023-04-10T13:30:00.391Z,20
2023-04-10T13:31:06.637Z,20
2023-04-10T13:32:12.850Z,21
2023-04-10T13:33:19.124Z,21
2023-04-10T13:34:25.239Z,21
2023-04-10T13:35:31.739Z,21
2023-04-10T13:36:37.973Z,19
2023-04-10T13:37:44.161Z,20
2023-04-10T13:38:50.474Z,20
2023-04-10T13:39:56.797Z,19
2023-04-10T13:41:03.034Z,18
2023-04-10T13:42:09.335Z,19
2023-04-10T13:43:15.567Z,20
2023-04-10T13:44:20.864Z,20
2023-04-10T13:45:27.134Z,18
2023-04-10T13:46:33.292Z,20
2023-04-10T13:47:39.599Z,19
2023-04-10T13:48:45.799Z,18
2023-04-10T13:49:52.068Z,18
2023-04-10T13:50:57.476Z,18
2023-04-10T13:52:02.648Z,18
2023-04-10T13:53:08.919Z,18
2023-04-10T13:54:15.261Z,17
2023-04-10T13:55:20.554Z,16
2023-04-10T13:56:25.786Z,17
2023-04-10T13:57:32.134Z,17
2023-04-10T13:58:38.350Z,18
2023-04-10T13:59:44.732Z,16
2023-04-10T14:00:50.861Z,18
2023-04-10T14:01:57.134Z,18
2023-04-10T14:03:03.439Z,16
2023-04-10T14:04:09.736Z,18
2023-04-10T14:05:15.957Z,17
2023-04-10T14:06:22.235Z,18
2023-04-10T14:07:28.515Z,17
2023-04-10T14:08:34.767Z,17
2023-04-10T14:09:41.040Z,17
2023-04-10T14:10:47.310Z,16
2023-04-10T14:11:52.615Z,17
2023-04-10T14:12:58.912Z,18
2023-04-10T14:14:05.194Z,15
2023-04-10T14:15:11.467Z,16
2023-04-10T14:16:17.697Z,16
2023-04-10T14:17:24.009Z,18
2023-04-10T14:18:29.276Z,16
2023-04-10T14:19:34.700Z,16
2023-04-10T14:20:39.896Z,16
2023-04-10T14:21:45.220Z,15
2023-04-10T14:22:51.427Z,15
2023-04-10T14:23:57.668Z,15
2023-04-10T14:25:03.942Z,14
2023-04-10T14:26:10.226Z,14
2023-04-10T14:27:16.485Z,13
2023-04-10T14:28:22.759Z,14
2023-04-10T14:29:29.110Z,14
2023-04-10T14:30:35.326Z,15
2023-04-10T14:31:41.577Z,15
2023-04-10T14:32:47.839Z,12
2023-04-10T14:33:54.175Z,15
2023-04-10T14:35:00.498Z,14
2023-04-10T14:36:05.766Z,15
2023-04-10T14:37:11.957Z,14
2023-04-10T14:38:18.242Z,13
2023-04-10T14:39:24.493Z,13
2023-04-10T14:40:30.761Z,12
2023-04-10T14:41:37.047Z,15
2023-04-10T14:42:43.296Z,13
2023-04-10T14:43:49.579Z,12
2023-04-10T14:44:54.873Z,13
2023-04-10T14:46:00.176Z,12
2023-04-10T14:47:06.448Z,12
2023-04-10T14:48:12.727Z,12
2023-04-10T14:49:18.989Z,12
2023-04-10T14:50:25.269Z,14
2023-04-10T14:51:30.556Z,12
2023-04-10T14:52:35.849Z,12
2023-04-10T14:53:42.116Z,13
2023-04-10T14:54:48.389Z,13
2023-04-10T14:55:54.772Z,13
2023-04-10T14:57:00.933Z,12
2023-04-10T14:58:07.196Z,15
2023-04-10T14:59:13.483Z,12
2023-04-10T15:00:19.753Z,13
2023-04-10T15:01:26.079Z,13
2023-04-10T15:02:32.300Z,12
2023-04-10T15:03:38.557Z,14
2023-04-10T15:04:44.844Z,13
2023-04-10T15:05:51.134Z,13
2023-04-10T15:06:57.403Z,12
2023-04-10T15:08:02.797Z,12
2023-04-10T15:09:08.943Z,13
2023-04-10T15:10:15.211Z,13
2023-04-10T15:11:21.469Z,12
2023-04-10T15:12:27.775Z,13
2023-04-10T15:13:34.039Z,12
2023-04-10T15:14:39.330Z,14
2023-04-10T15:15:44.623Z,13
2023-04-10T15:16:49.907Z,15
2023-04-10T15:17:55.197Z,13
2023-04-10T15:19:01.468Z,12
2023-04-10T15:20:07.754Z,11
2023-04-10T15:21:14.042Z,12
2023-04-10T15:22:20.293Z,12
2023-04-10T15:23:26.602Z,13
2023-04-10T15:24:32.872Z,12
2023-04-10T15:25:39.097Z,12
2023-04-10T15:26:45.366Z,12
2023-04-10T15:27:51.645Z,12
2023-04-10T15:28:57.923Z,12
2023-04-10T15:30:04.184Z,12
2023-04-10T15:31:10.456Z,12
2023-04-10T15:32:15.777Z,12
2023-04-10T15:33:22.038Z,13
2023-04-10T15:34:28.409Z,13
2023-04-10T15:35:34.570Z,12
2023-04-10T15:36:40.828Z,12
2023-04-10T15:37:47.102Z,12
2023-04-10T15:38:53.380Z,12
2023-04-10T15:39:59.715Z,12